sensor_id;sensor_type;location;lat;lon;timestamp;P1;durP1;ratioP1;P2;durP2;ratioP2
12848;SDS011;6493;50.928;7.172;2022-07-22T00:01:55;1.00;;;0.90;;
12848;SDS011;6493;50.928;7.172;2022-07-22T00:07:02;1.43;;;0.80;;
12848;SDS011;6493;50.928;7.172;2022-07-22T00:12:07;0.83;;;0.80;;
12848;SDS011;6493;50.928;7.172;2022-07-22T00:17:11;1.10;;;0.90;;
12848;SDS011;6493;50.928;7.172;2022-07-22T00:22:16;1.20;;;1.10;;
12848;SDS011;6493;50.928;7.172;2022-07-22T00:27:21;1.23;;;0.93;;
12848;SDS011;6493;50.928;7.172;2022-07-22T00:32:25;2.10;;;1.10;;
12848;SDS011;6493;50.928;7.172;2022-07-22T00:37:32;1.80;;;1.70;;
12848;SDS011;6493;50.928;7.172;2022-07-22T00:42:35;1.37;;;1.27;;
12848;SDS011;6493;50.928;7.172;2022-07-22T00:47:39;2.10;;;1.00;;
12848;SDS011;6493;50.928;7.172;2022-07-22T00:52:44;0.80;;;0.80;;
12848;SDS011;6493;50.928;7.172;2022-07-22T00:57:48;1.03;;;0.97;;
12848;SDS011;6493;50.928;7.172;2022-07-22T01:02:52;1.90;;;1.13;;
12848;SDS011;6493;50.928;7.172;2022-07-22T01:07:57;1.20;;;1.00;;
12848;SDS011;6493;50.928;7.172;2022-07-22T01:13:00;0.83;;;0.83;;
12848;SDS011;6493;50.928;7.172;2022-07-22T01:18:04;1.17;;;0.90;;
12848;SDS011;6493;50.928;7.172;2022-07-22T01:23:10;0.97;;;0.80;;
12848;SDS011;6493;50.928;7.172;2022-07-22T01:28:14;1.27;;;1.00;;
12848;SDS011;6493;50.928;7.172;2022-07-22T01:33:18;0.80;;;0.80;;
12848;SDS011;6493;50.928;7.172;2022-07-22T01:38:24;1.00;;;0.73;;
12848;SDS011;6493;50.928;7.172;2022-07-22T01:43:28;0.80;;;0.60;;
12848;SDS011;6493;50.928;7.172;2022-07-22T01:48:31;0.97;;;0.70;;
12848;SDS011;6493;50.928;7.172;2022-07-22T01:53:37;1.47;;;0.73;;
12848;SDS011;6493;50.928;7.172;2022-07-22T01:58:41;1.00;;;0.60;;
12848;SDS011;6493;50.928;7.172;2022-07-22T02:03:45;0.73;;;0.60;;
12848;SDS011;6493;50.928;7.172;2022-07-22T02:08:50;0.60;;;0.60;;
12848;SDS011;6493;50.928;7.172;2022-07-22T02:14:03;0.97;;;0.70;;
12848;SDS011;6493;50.928;7.172;2022-07-22T02:19:07;0.60;;;0.60;;
12848;SDS011;6493;50.928;7.172;2022-07-22T02:24:12;0.87;;;0.73;;
12848;SDS011;6493;50.928;7.172;2022-07-22T02:29:16;1.03;;;0.70;;
12848;SDS011;6493;50.928;7.172;2022-07-22T02:34:20;0.80;;;0.80;;
12848;SDS011;6493;50.928;7.172;2022-07-22T02:39:25;0.97;;;0.97;;
12848;SDS011;6493;50.928;7.172;2022-07-22T02:44:29;1.10;;;1.10;;
12848;SDS011;6493;50.928;7.172;2022-07-22T02:49:33;1.43;;;1.20;;
12848;SDS011;6493;50.928;7.172;2022-07-22T02:54:39;1.33;;;1.23;;
12848;SDS011;6493;50.928;7.172;2022-07-22T02:59:43;1.43;;;1.33;;
12848;SDS011;6493;50.928;7.172;2022-07-22T03:04:48;1.40;;;1.30;;
12848;SDS011;6493;50.928;7.172;2022-07-22T03:09:53;1.30;;;1.20;;
12848;SDS011;6493;50.928;7.172;2022-07-22T03:15:04;1.67;;;1.50;;
12848;SDS011;6493;50.928;7.172;2022-07-22T03:20:10;1.73;;;1.17;;
12848;SDS011;6493;50.928;7.172;2022-07-22T03:25:16;1.30;;;1.10;;
12848;SDS011;6493;50.928;7.172;2022-07-22T03:30:20;1.60;;;1.50;;
12848;SDS011;6493;50.928;7.172;2022-07-22T03:35:24;1.60;;;1.50;;
12848;SDS011;6493;50.928;7.172;2022-07-22T03:40:29;1.50;;;1.40;;
12848;SDS011;6493;50.928;7.172;2022-07-22T03:45:33;1.87;;;1.70;;
12848;SDS011;6493;50.928;7.172;2022-07-22T03:50:37;1.80;;;1.70;;
12848;SDS011;6493;50.928;7.172;2022-07-22T03:55:42;1.60;;;1.50;;
12848;SDS011;6493;50.928;7.172;2022-07-22T04:00:46;1.47;;;1.37;;
12848;SDS011;6493;50.928;7.172;2022-07-22T04:05:50;1.27;;;1.17;;
12848;SDS011;6493;50.928;7.172;2022-07-22T04:11:06;0.97;;;0.97;;
12848;SDS011;6493;50.928;7.172;2022-07-22T04:16:09;0.97;;;0.97;;
12848;SDS011;6493;50.928;7.172;2022-07-22T04:21:22;1.57;;;1.20;;
12848;SDS011;6493;50.928;7.172;2022-07-22T04:26:30;1.20;;;1.10;;
12848;SDS011;6493;50.928;7.172;2022-07-22T04:31:34;1.37;;;1.23;;
12848;SDS011;6493;50.928;7.172;2022-07-22T04:36:47;1.40;;;1.30;;
12848;SDS011;6493;50.928;7.172;2022-07-22T04:41:53;1.40;;;1.30;;
12848;SDS011;6493;50.928;7.172;2022-07-22T04:46:57;1.50;;;1.40;;
12848;SDS011;6493;50.928;7.172;2022-07-22T04:52:09;1.40;;;1.30;;
12848;SDS011;6493;50.928;7.172;2022-07-22T04:57:21;1.40;;;1.30;;
12848;SDS011;6493;50.928;7.172;2022-07-22T05:02:25;1.50;;;1.40;;
12848;SDS011;6493;50.928;7.172;2022-07-22T05:07:30;1.47;;;1.37;;
12848;SDS011;6493;50.928;7.172;2022-07-22T05:12:35;1.47;;;1.37;;
12848;SDS011;6493;50.928;7.172;2022-07-22T05:17:39;1.40;;;1.20;;
12848;SDS011;6493;50.928;7.172;2022-07-22T05:23:03;1.17;;;1.13;;
12848;SDS011;6493;50.928;7.172;2022-07-22T05:28:10;1.40;;;1.30;;
12848;SDS011;6493;50.928;7.172;2022-07-22T05:33:17;2.00;;;1.30;;
12848;SDS011;6493;50.928;7.172;2022-07-22T05:38:33;1.40;;;1.30;;
12848;SDS011;6493;50.928;7.172;2022-07-22T05:43:38;1.30;;;1.20;;
12848;SDS011;6493;50.928;7.172;2022-07-22T05:48:43;1.47;;;1.37;;
12848;SDS011;6493;50.928;7.172;2022-07-22T05:53:47;1.70;;;1.60;;
12848;SDS011;6493;50.928;7.172;2022-07-22T05:58:53;1.83;;;1.73;;
12848;SDS011;6493;50.928;7.172;2022-07-22T06:03:58;2.10;;;2.00;;
12848;SDS011;6493;50.928;7.172;2022-07-22T06:09:02;2.30;;;2.10;;
12848;SDS011;6493;50.928;7.172;2022-07-22T06:14:08;2.10;;;1.90;;
12848;SDS011;6493;50.928;7.172;2022-07-22T06:19:11;2.47;;;2.27;;
12848;SDS011;6493;50.928;7.172;2022-07-22T06:24:16;2.93;;;2.30;;
12848;SDS011;6493;50.928;7.172;2022-07-22T06:29:21;2.97;;;2.67;;
12848;SDS011;6493;50.928;7.172;2022-07-22T06:34:25;2.40;;;2.20;;
12848;SDS011;6493;50.928;7.172;2022-07-22T06:39:34;2.60;;;2.40;;
12848;SDS011;6493;50.928;7.172;2022-07-22T06:44:50;2.30;;;2.10;;
12848;SDS011;6493;50.928;7.172;2022-07-22T06:50:17;1.80;;;1.70;;
12848;SDS011;6493;50.928;7.172;2022-07-22T06:55:21;2.07;;;1.70;;
12848;SDS011;6493;50.928;7.172;2022-07-22T07:00:46;1.40;;;1.30;;
12848;SDS011;6493;50.928;7.172;2022-07-22T07:06:10;1.10;;;1.10;;
12848;SDS011;6493;50.928;7.172;2022-07-22T07:11:38;1.10;;;1.03;;
12848;SDS011;6493;50.928;7.172;2022-07-22T07:16:52;0.83;;;0.83;;
12848;SDS011;6493;50.928;7.172;2022-07-22T07:21:56;0.83;;;0.83;;
12848;SDS011;6493;50.928;7.172;2022-07-22T07:27:00;0.97;;;0.87;;
12848;SDS011;6493;50.928;7.172;2022-07-22T07:32:05;1.40;;;1.30;;
12848;SDS011;6493;50.928;7.172;2022-07-22T07:37:09;1.00;;;1.00;;
12848;SDS011;6493;50.928;7.172;2022-07-22T07:42:13;1.33;;;1.23;;
12848;SDS011;6493;50.928;7.172;2022-07-22T07:47:18;1.10;;;1.00;;
12848;SDS011;6493;50.928;7.172;2022-07-22T07:52:24;1.30;;;1.20;;
12848;SDS011;6493;50.928;7.172;2022-07-22T07:57:28;1.50;;;1.40;;
12848;SDS011;6493;50.928;7.172;2022-07-22T08:02:34;1.40;;;1.30;;
12848;SDS011;6493;50.928;7.172;2022-07-22T08:07:40;1.40;;;1.30;;
12848;SDS011;6493;50.928;7.172;2022-07-22T08:12:45;1.77;;;1.27;;
12848;SDS011;6493;50.928;7.172;2022-07-22T08:17:56;1.90;;;1.00;;
12848;SDS011;6493;50.928;7.172;2022-07-22T08:23:01;1.20;;;1.10;;
12848;SDS011;6493;50.928;7.172;2022-07-22T08:28:07;1.20;;;1.10;;
12848;SDS011;6493;50.928;7.172;2022-07-22T08:33:12;1.30;;;1.20;;
12848;SDS011;6493;50.928;7.172;2022-07-22T08:38:17;1.50;;;1.40;;
12848;SDS011;6493;50.928;7.172;2022-07-22T08:43:21;1.00;;;1.00;;
12848;SDS011;6493;50.928;7.172;2022-07-22T08:48:26;1.30;;;1.20;;
12848;SDS011;6493;50.928;7.172;2022-07-22T08:54:08;1.43;;;1.33;;
12848;SDS011;6493;50.928;7.172;2022-07-22T08:59:13;1.10;;;1.00;;
12848;SDS011;6493;50.928;7.172;2022-07-22T09:04:18;1.10;;;1.10;;
12848;SDS011;6493;50.928;7.172;2022-07-22T09:09:28;1.13;;;1.07;;
12848;SDS011;6493;50.928;7.172;2022-07-22T09:15:09;1.77;;;1.20;;
12848;SDS011;6493;50.928;7.172;2022-07-22T09:20:20;1.20;;;1.10;;
12848;SDS011;6493;50.928;7.172;2022-07-22T09:25:50;1.20;;;1.10;;
12848;SDS011;6493;50.928;7.172;2022-07-22T09:31:02;1.03;;;1.03;;
12848;SDS011;6493;50.928;7.172;2022-07-22T09:36:13;1.23;;;1.20;;
12848;SDS011;6493;50.928;7.172;2022-07-22T09:41:17;1.30;;;1.20;;
12848;SDS011;6493;50.928;7.172;2022-07-22T09:46:32;1.30;;;1.20;;
12848;SDS011;6493;50.928;7.172;2022-07-22T09:52:15;1.30;;;1.20;;
12848;SDS011;6493;50.928;7.172;2022-07-22T09:57:38;1.00;;;1.00;;
12848;SDS011;6493;50.928;7.172;2022-07-22T10:02:47;1.90;;;1.23;;
12848;SDS011;6493;50.928;7.172;2022-07-22T10:07:53;1.17;;;1.07;;
12848;SDS011;6493;50.928;7.172;2022-07-22T10:12:58;1.13;;;1.07;;
12848;SDS011;6493;50.928;7.172;2022-07-22T10:18:04;1.10;;;1.00;;
12848;SDS011;6493;50.928;7.172;2022-07-22T10:23:13;1.20;;;1.10;;
12848;SDS011;6493;50.928;7.172;2022-07-22T10:28:21;1.13;;;1.10;;
12848;SDS011;6493;50.928;7.172;2022-07-22T10:33:29;0.90;;;0.90;;
12848;SDS011;6493;50.928;7.172;2022-07-22T10:38:36;1.20;;;1.10;;
12848;SDS011;6493;50.928;7.172;2022-07-22T10:43:45;1.30;;;1.20;;
12848;SDS011;6493;50.928;7.172;2022-07-22T10:48:50;1.23;;;1.13;;
12848;SDS011;6493;50.928;7.172;2022-07-22T10:53:56;1.30;;;1.20;;
12848;SDS011;6493;50.928;7.172;2022-07-22T10:59:08;1.13;;;1.03;;
12848;SDS011;6493;50.928;7.172;2022-07-22T11:04:15;1.03;;;1.00;;
12848;SDS011;6493;50.928;7.172;2022-07-22T11:09:21;1.20;;;1.10;;
12848;SDS011;6493;50.928;7.172;2022-07-22T11:14:29;1.33;;;1.23;;
12848;SDS011;6493;50.928;7.172;2022-07-22T11:19:34;1.07;;;1.00;;
12848;SDS011;6493;50.928;7.172;2022-07-22T11:24:41;1.60;;;1.50;;
12848;SDS011;6493;50.928;7.172;2022-07-22T11:29:47;1.40;;;1.30;;
12848;SDS011;6493;50.928;7.172;2022-07-22T11:34:52;1.40;;;1.30;;
12848;SDS011;6493;50.928;7.172;2022-07-22T11:39:59;1.47;;;1.30;;
12848;SDS011;6493;50.928;7.172;2022-07-22T11:45:06;1.30;;;1.20;;
12848;SDS011;6493;50.928;7.172;2022-07-22T11:50:10;1.60;;;1.50;;
12848;SDS011;6493;50.928;7.172;2022-07-22T11:55:16;1.80;;;1.70;;
12848;SDS011;6493;50.928;7.172;2022-07-22T12:00:19;1.97;;;1.87;;
12848;SDS011;6493;50.928;7.172;2022-07-22T12:05:24;2.27;;;2.07;;
12848;SDS011;6493;50.928;7.172;2022-07-22T12:10:34;1.87;;;1.70;;
12848;SDS011;6493;50.928;7.172;2022-07-22T12:15:37;1.90;;;1.80;;
12848;SDS011;6493;50.928;7.172;2022-07-22T12:20:48;1.50;;;1.40;;
12848;SDS011;6493;50.928;7.172;2022-07-22T12:26:00;1.50;;;1.40;;
12848;SDS011;6493;50.928;7.172;2022-07-22T12:31:04;1.37;;;1.23;;
12848;SDS011;6493;50.928;7.172;2022-07-22T12:36:08;1.37;;;1.27;;
12848;SDS011;6493;50.928;7.172;2022-07-22T12:41:23;1.30;;;1.20;;
12848;SDS011;6493;50.928;7.172;2022-07-22T12:46:28;1.83;;;1.73;;
12848;SDS011;6493;50.928;7.172;2022-07-22T12:51:31;1.40;;;1.30;;
12848;SDS011;6493;50.928;7.172;2022-07-22T12:56:36;1.40;;;1.30;;
12848;SDS011;6493;50.928;7.172;2022-07-22T13:01:41;1.13;;;1.13;;
12848;SDS011;6493;50.928;7.172;2022-07-22T13:06:45;1.40;;;1.30;;
12848;SDS011;6493;50.928;7.172;2022-07-22T13:11:50;1.40;;;1.30;;
12848;SDS011;6493;50.928;7.172;2022-07-22T13:16:54;1.47;;;1.37;;
12848;SDS011;6493;50.928;7.172;2022-07-22T13:21:58;1.60;;;1.50;;
12848;SDS011;6493;50.928;7.172;2022-07-22T13:27:03;1.57;;;1.47;;
12848;SDS011;6493;50.928;7.172;2022-07-22T13:32:07;1.33;;;1.23;;
12848;SDS011;6493;50.928;7.172;2022-07-22T13:37:23;1.60;;;1.50;;
12848;SDS011;6493;50.928;7.172;2022-07-22T13:42:28;1.90;;;1.80;;
12848;SDS011;6493;50.928;7.172;2022-07-22T13:47:32;1.50;;;1.40;;
12848;SDS011;6493;50.928;7.172;2022-07-22T13:52:36;1.60;;;1.50;;
12848;SDS011;6493;50.928;7.172;2022-07-22T13:57:41;1.33;;;1.23;;
12848;SDS011;6493;50.928;7.172;2022-07-22T14:09:28;1.60;;;1.50;;
12848;SDS011;6493;50.928;7.172;2022-07-22T14:14:40;1.57;;;1.47;;
12848;SDS011;6493;50.928;7.172;2022-07-22T14:19:44;1.30;;;1.20;;
12848;SDS011;6493;50.928;7.172;2022-07-22T14:24:51;1.27;;;1.17;;
12848;SDS011;6493;50.928;7.172;2022-07-22T14:29:56;1.27;;;1.17;;
12848;SDS011;6493;50.928;7.172;2022-07-22T14:34:59;1.60;;;1.50;;
12848;SDS011;6493;50.928;7.172;2022-07-22T14:40:07;1.47;;;1.37;;
12848;SDS011;6493;50.928;7.172;2022-07-22T14:45:22;1.20;;;1.17;;
12848;SDS011;6493;50.928;7.172;2022-07-22T14:50:25;1.50;;;1.40;;
12848;SDS011;6493;50.928;7.172;2022-07-22T14:55:29;1.77;;;1.67;;
12848;SDS011;6493;50.928;7.172;2022-07-22T15:00:34;1.37;;;1.27;;
12848;SDS011;6493;50.928;7.172;2022-07-22T15:05:38;1.40;;;1.30;;
12848;SDS011;6493;50.928;7.172;2022-07-22T15:10:43;1.97;;;1.87;;
12848;SDS011;6493;50.928;7.172;2022-07-22T15:15:48;1.40;;;1.30;;
12848;SDS011;6493;50.928;7.172;2022-07-22T15:20:52;1.33;;;1.23;;
12848;SDS011;6493;50.928;7.172;2022-07-22T15:25:57;1.47;;;1.30;;
12848;SDS011;6493;50.928;7.172;2022-07-22T15:31:03;1.20;;;1.10;;
12848;SDS011;6493;50.928;7.172;2022-07-22T15:36:08;1.50;;;1.40;;
12848;SDS011;6493;50.928;7.172;2022-07-22T15:41:13;1.23;;;1.17;;
12848;SDS011;6493;50.928;7.172;2022-07-22T15:46:18;1.10;;;1.00;;
12848;SDS011;6493;50.928;7.172;2022-07-22T15:51:22;1.43;;;1.33;;
12848;SDS011;6493;50.928;7.172;2022-07-22T15:56:26;1.23;;;1.13;;
12848;SDS011;6493;50.928;7.172;2022-07-22T16:01:31;1.40;;;1.30;;
12848;SDS011;6493;50.928;7.172;2022-07-22T16:06:35;1.90;;;1.80;;
12848;SDS011;6493;50.928;7.172;2022-07-22T16:11:39;1.70;;;1.60;;
12848;SDS011;6493;50.928;7.172;2022-07-22T16:16:44;1.80;;;1.70;;
12848;SDS011;6493;50.928;7.172;2022-07-22T16:21:48;1.77;;;1.67;;
12848;SDS011;6493;50.928;7.172;2022-07-22T16:26:52;1.23;;;1.20;;
12848;SDS011;6493;50.928;7.172;2022-07-22T16:31:57;1.50;;;1.40;;
12848;SDS011;6493;50.928;7.172;2022-07-22T16:37:00;1.50;;;1.40;;
12848;SDS011;6493;50.928;7.172;2022-07-22T16:42:04;1.13;;;1.13;;
12848;SDS011;6493;50.928;7.172;2022-07-22T16:47:10;1.27;;;1.17;;
12848;SDS011;6493;50.928;7.172;2022-07-22T16:52:13;1.70;;;1.53;;
12848;SDS011;6493;50.928;7.172;2022-07-22T16:57:17;1.70;;;1.60;;
12848;SDS011;6493;50.928;7.172;2022-07-22T17:02:29;3.00;;;1.60;;
12848;SDS011;6493;50.928;7.172;2022-07-22T17:07:32;2.17;;;1.80;;
12848;SDS011;6493;50.928;7.172;2022-07-22T17:12:36;1.67;;;1.50;;
12848;SDS011;6493;50.928;7.172;2022-07-22T17:17:41;1.73;;;1.63;;
12848;SDS011;6493;50.928;7.172;2022-07-22T17:22:45;1.73;;;1.63;;
12848;SDS011;6493;50.928;7.172;2022-07-22T17:27:50;1.60;;;1.50;;
12848;SDS011;6493;50.928;7.172;2022-07-22T17:32:55;1.63;;;1.53;;
12848;SDS011;6493;50.928;7.172;2022-07-22T17:37:59;1.60;;;1.50;;
12848;SDS011;6493;50.928;7.172;2022-07-22T17:43:03;1.33;;;1.23;;
12848;SDS011;6493;50.928;7.172;2022-07-22T17:48:11;1.63;;;1.50;;
12848;SDS011;6493;50.928;7.172;2022-07-22T17:53:15;1.37;;;1.27;;
12848;SDS011;6493;50.928;7.172;2022-07-22T17:58:19;1.60;;;1.50;;
12848;SDS011;6493;50.928;7.172;2022-07-22T18:03:25;1.50;;;1.40;;
12848;SDS011;6493;50.928;7.172;2022-07-22T18:08:29;2.00;;;1.90;;
12848;SDS011;6493;50.928;7.172;2022-07-22T18:13:32;1.57;;;1.47;;
12848;SDS011;6493;50.928;7.172;2022-07-22T18:18:37;3.47;;;2.00;;
12848;SDS011;6493;50.928;7.172;2022-07-22T18:29:27;1.63;;;1.53;;
12848;SDS011;6493;50.928;7.172;2022-07-22T18:34:32;1.83;;;1.73;;
12848;SDS011;6493;50.928;7.172;2022-07-22T18:39:35;1.70;;;1.60;;
12848;SDS011;6493;50.928;7.172;2022-07-22T18:50:11;2.20;;;1.80;;
12848;SDS011;6493;50.928;7.172;2022-07-22T18:55:27;1.97;;;1.77;;
12848;SDS011;6493;50.928;7.172;2022-07-22T19:00:31;1.87;;;1.77;;
12848;SDS011;6493;50.928;7.172;2022-07-22T19:05:36;1.50;;;1.40;;
12848;SDS011;6493;50.928;7.172;2022-07-22T19:10:40;2.03;;;1.83;;
12848;SDS011;6493;50.928;7.172;2022-07-22T19:15:50;2.07;;;1.90;;
12848;SDS011;6493;50.928;7.172;2022-07-22T19:20:58;2.40;;;2.20;;
12848;SDS011;6493;50.928;7.172;2022-07-22T19:32:33;1.87;;;1.70;;
12848;SDS011;6493;50.928;7.172;2022-07-22T19:37:38;1.97;;;1.83;;
12848;SDS011;6493;50.928;7.172;2022-07-22T19:42:42;2.47;;;2.27;;
12848;SDS011;6493;50.928;7.172;2022-07-22T19:47:49;2.30;;;1.63;;
12848;SDS011;6493;50.928;7.172;2022-07-22T19:52:59;1.30;;;1.20;;
12848;SDS011;6493;50.928;7.172;2022-07-22T19:58:03;1.60;;;1.50;;
12848;SDS011;6493;50.928;7.172;2022-07-22T20:03:07;1.97;;;1.60;;
12848;SDS011;6493;50.928;7.172;2022-07-22T20:08:12;1.50;;;1.40;;
12848;SDS011;6493;50.928;7.172;2022-07-22T20:14:00;1.80;;;1.70;;
12848;SDS011;6493;50.928;7.172;2022-07-22T20:18:53;1.83;;;1.73;;
12848;SDS011;6493;50.928;7.172;2022-07-22T20:23:59;1.53;;;1.43;;
12848;SDS011;6493;50.928;7.172;2022-07-22T20:29:03;2.97;;;1.83;;
12848;SDS011;6493;50.928;7.172;2022-07-22T20:34:06;2.00;;;1.70;;
12848;SDS011;6493;50.928;7.172;2022-07-22T20:39:11;1.60;;;1.50;;
12848;SDS011;6493;50.928;7.172;2022-07-22T20:44:18;1.77;;;1.67;;
12848;SDS011;6493;50.928;7.172;2022-07-22T20:49:27;1.80;;;1.70;;
12848;SDS011;6493;50.928;7.172;2022-07-22T20:54:32;1.70;;;1.60;;
12848;SDS011;6493;50.928;7.172;2022-07-22T20:59:36;1.50;;;1.40;;
12848;SDS011;6493;50.928;7.172;2022-07-22T21:04:40;1.50;;;1.40;;
12848;SDS011;6493;50.928;7.172;2022-07-22T21:09:46;1.60;;;1.50;;
12848;SDS011;6493;50.928;7.172;2022-07-22T21:14:52;1.40;;;1.30;;
12848;SDS011;6493;50.928;7.172;2022-07-22T21:20:00;1.90;;;1.80;;
12848;SDS011;6493;50.928;7.172;2022-07-22T21:25:06;1.43;;;1.33;;
12848;SDS011;6493;50.928;7.172;2022-07-22T21:30:11;2.43;;;1.33;;
12848;SDS011;6493;50.928;7.172;2022-07-22T21:35:15;1.63;;;1.53;;
12848;SDS011;6493;50.928;7.172;2022-07-22T21:40:20;1.53;;;1.43;;
12848;SDS011;6493;50.928;7.172;2022-07-22T21:45:26;1.43;;;1.33;;
12848;SDS011;6493;50.928;7.172;2022-07-22T21:50:29;1.43;;;1.33;;
12848;SDS011;6493;50.928;7.172;2022-07-22T21:55:34;1.63;;;1.53;;
12848;SDS011;6493;50.928;7.172;2022-07-22T22:00:38;1.37;;;1.27;;
12848;SDS011;6493;50.928;7.172;2022-07-22T22:05:41;1.30;;;1.20;;
12848;SDS011;6493;50.928;7.172;2022-07-22T22:10:46;1.43;;;1.33;;
12848;SDS011;6493;50.928;7.172;2022-07-22T22:15:55;1.40;;;1.30;;
12848;SDS011;6493;50.928;7.172;2022-07-22T22:20:59;1.40;;;1.30;;
12848;SDS011;6493;50.928;7.172;2022-07-22T22:26:04;1.83;;;1.73;;
12848;SDS011;6493;50.928;7.172;2022-07-22T22:31:08;1.63;;;1.53;;
12848;SDS011;6493;50.928;7.172;2022-07-22T22:36:12;1.67;;;1.57;;
12848;SDS011;6493;50.928;7.172;2022-07-22T22:41:17;1.67;;;1.57;;
12848;SDS011;6493;50.928;7.172;2022-07-22T22:46:21;1.77;;;1.67;;
12848;SDS011;6493;50.928;7.172;2022-07-22T22:51:24;2.00;;;1.80;;
12848;SDS011;6493;50.928;7.172;2022-07-22T22:56:29;1.90;;;1.80;;
12848;SDS011;6493;50.928;7.172;2022-07-22T23:01:33;1.97;;;1.87;;
12848;SDS011;6493;50.928;7.172;2022-07-22T23:06:37;2.77;;;2.30;;
12848;SDS011;6493;50.928;7.172;2022-07-22T23:11:42;1.97;;;1.77;;
12848;SDS011;6493;50.928;7.172;2022-07-22T23:16:45;2.30;;;2.10;;
12848;SDS011;6493;50.928;7.172;2022-07-22T23:21:49;3.37;;;2.37;;
12848;SDS011;6493;50.928;7.172;2022-07-22T23:26:55;2.47;;;2.27;;
12848;SDS011;6493;50.928;7.172;2022-07-22T23:31:58;3.00;;;2.80;;
12848;SDS011;6493;50.928;7.172;2022-07-22T23:37:02;2.57;;;2.37;;
12848;SDS011;6493;50.928;7.172;2022-07-22T23:42:07;2.70;;;2.50;;
12848;SDS011;6493;50.928;7.172;2022-07-22T23:47:11;2.80;;;2.60;;
12848;SDS011;6493;50.928;7.172;2022-07-22T23:52:14;2.47;;;2.27;;
12848;SDS011;6493;50.928;7.172;2022-07-22T23:57:19;2.57;;;2.37;;
